Grand Ruby — 3EIU3 — position and weather

sailwx.info

Track history (hours):
 
Tides and Currents Weather Stations Pressure Air Temp Water Temp Dewpoint Dewpoint Depression Visibility Wind Speed Wind Dir Waves Ship Positions

Grand Ruby

Last reported at 2016-Dec-31 14:21 UTC. Time now 2017-Feb-26 00:57 UTC.
Position N 32°20' W 117°30'.
Warning: this ship's position is 56 days out of date.

Length 199 m; draft 7.8 m.

Type: Cargo ship. MMSI: 372399000.

Date/timePositionNaut miles runAvg speedWind from/ knotsBaromVisibWave heightAir tempDewpointWater temp
2016-Dec-31 14:21N 32°20' W 117°30'1316.4
2016-Dec-31 13:33N 32°31' W 117°21'1212.4
2016-Dec-31 12:33N 32°42' W 117°14'6 5.9
2016-Dec-31 11:32N 32°39' W 117°07'0 0.0
2016-Dec-31 10:32N 32°39' W 117°07'0 0.0
2016-Dec-31 09:32N 32°39' W 117°07'0 0.0
2016-Dec-31 08:32N 32°39' W 117°07'0 0.0
2016-Dec-31 07:32N 32°39' W 117°07'0 0.0
2016-Dec-31 06:32N 32°39' W 117°07'0 0.0
2016-Dec-31 05:32N 32°39' W 117°07'0 0.0
2016-Dec-31 04:32N 32°39' W 117°07'0 0.0
2016-Dec-31 03:32N 32°39' W 117°07'0 0.0
2016-Dec-31 02:32N 32°39' W 117°07'0 0.0
2016-Dec-31 01:32N 32°39' W 117°07'0 0.0
2016-Dec-31 00:29N 32°39' W 117°07'0 0.0
2016-Dec-30 23:32N 32°39' W 117°07'0 0.0
2016-Dec-30 22:32N 32°39' W 117°07'0 0.0
2016-Dec-30 21:32N 32°39' W 117°07'0 0.0
2016-Dec-30 20:29N 32°39' W 117°07'0 0.0
2016-Dec-30 19:32N 32°39' W 117°07'0 0.0
2016-Dec-30 18:32N 32°39' W 117°07'0 0.0
2016-Dec-30 17:32N 32°39' W 117°07'0 0.0
2016-Dec-30 16:32N 32°39' W 117°07'4 4.4
2016-Dec-30 15:33N 32°42' W 117°11'6 5.6
2016-Dec-30 14:33N 32°37' W 117°13'1 1.3
2016-Dec-30 13:33N 32°38' W 117°11'0 0.0
2016-Dec-30 12:33N 32°38' W 117°11'0 0.0
2016-Dec-30 11:33N 32°38' W 117°11'0 0.1
2016-Dec-30 10:33N 32°38' W 117°11'0 0.0
2016-Dec-30 09:30N 32°38' W 117°11'0 0.1
2016-Dec-30 08:33N 32°38' W 117°11'0 0.0
2016-Dec-30 07:33N 32°38' W 117°11'0 0.0
2016-Dec-30 06:33N 32°38' W 117°11'0 0.0
2016-Dec-30 05:30N 32°38' W 117°11'0 0.0
2016-Dec-30 04:33N 32°38' W 117°11'0 0.0
2016-Dec-30 03:33N 32°38' W 117°11'0 0.0
2016-Dec-30 02:30N 32°38' W 117°11'0 0.0
2016-Dec-30 01:33N 32°38' W 117°11'0 0.1
2016-Dec-30 00:33N 32°38' W 117°11'0 0.0
2016-Dec-29 23:33N 32°38' W 117°11'0 0.0
2016-Dec-29 22:33N 32°38' W 117°11'0 0.1
2016-Dec-29 21:30N 32°38' W 117°11'0 0.0
2016-Dec-29 20:33N 32°38' W 117°11'0 0.1
2016-Dec-29 19:33N 32°38' W 117°11'0 0.0
2016-Dec-29 18:33N 32°38' W 117°11'0 0.1
2016-Dec-29 17:33N 32°38' W 117°11'0 0.1
2016-Dec-29 16:33N 32°38' W 117°11'0 0.0
2016-Dec-29 15:33N 32°38' W 117°11'0 0.0
2016-Dec-29 14:30N 32°38' W 117°11'0 0.0
2016-Dec-29 13:33N 32°38' W 117°11'0 0.0
2016-Dec-29 12:33N 32°38' W 117°11'0 0.0
2016-Dec-29 11:33N 32°38' W 117°11'0 0.0
2016-Dec-29 10:30N 32°38' W 117°11'0 0.0
2016-Dec-29 09:33N 32°38' W 117°11'0 0.0
2016-Dec-29 08:30N 32°38' W 117°11'0 0.1
2016-Dec-29 07:33N 32°38' W 117°11'0 0.1
2016-Dec-29 06:33N 32°38' W 117°11'0 0.0
2016-Dec-29 05:33N 32°38' W 117°11'0 0.0
2016-Dec-29 04:33N 32°38' W 117°11'0 0.1
2016-Dec-29 03:33N 32°38' W 117°11'0 0.1
2016-Dec-29 02:33N 32°38' W 117°11'0 0.0
2016-Dec-29 01:30N 32°38' W 117°11'0 0.0
2016-Dec-29 00:33N 32°38' W 117°11'0 0.0
2016-Dec-28 23:33N 32°38' W 117°11'0 0.0
2016-Dec-28 22:33N 32°38' W 117°11'0 0.0
2016-Dec-28 21:33N 32°38' W 117°11'0 0.0
2016-Dec-28 20:33N 32°38' W 117°11'0 0.0
2016-Dec-28 19:33N 32°38' W 117°11'0 0.0
2016-Dec-28 18:33N 32°38' W 117°11'0 0.1
2016-Dec-28 17:33N 32°38' W 117°11'0 0.0
2016-Dec-28 16:33N 32°38' W 117°11'0 0.0
2016-Dec-28 15:30N 32°38' W 117°11'0 0.0
2016-Dec-28 14:33N 32°38' W 117°11'0 0.0
2016-Dec-28 13:33N 32°38' W 117°11'0 0.0
2016-Dec-28 12:30N 32°38' W 117°11'0 0.0
2016-Dec-28 11:30N 32°38' W 117°11'0 0.0
2016-Dec-28 10:33N 32°38' W 117°11'0 0.0
2016-Dec-28 09:33N 32°38' W 117°11'0 0.0
2016-Dec-28 08:33N 32°38' W 117°11'0 0.0
2016-Dec-28 07:33N 32°38' W 117°11'0 0.1
2016-Dec-28 06:33N 32°38' W 117°11'0 0.0
2016-Dec-28 05:33N 32°38' W 117°11'0 0.0
2016-Dec-28 04:33N 32°38' W 117°11'0 0.0
2016-Dec-28 03:33N 32°38' W 117°11'0 0.0
2016-Dec-28 02:33N 32°38' W 117°11'0 0.0
2016-Dec-28 01:33N 32°38' W 117°11'0 0.0
2016-Dec-28 00:30N 32°38' W 117°11'0 0.0
2016-Dec-27 23:33N 32°38' W 117°11'0 0.0
2016-Dec-27 22:30N 32°38' W 117°11'0 0.1
2016-Dec-27 21:33N 32°38' W 117°11'0 0.0
2016-Dec-27 20:33N 32°38' W 117°11'0 0.0
2016-Dec-27 19:33N 32°38' W 117°11'0 0.1
2016-Dec-27 18:30N 32°38' W 117°11'0 0.0
2016-Dec-27 17:33N 32°38' W 117°11'0 0.0
2016-Dec-27 16:33N 32°38' W 117°11'0 0.0
2016-Dec-27 15:33N 32°38' W 117°11'0 0.1
2016-Dec-27 14:33N 32°38' W 117°11'0 0.0
2016-Dec-27 13:33N 32°38' W 117°11'0 0.0
2016-Dec-27 12:33N 32°38' W 117°11'0 0.0
2016-Dec-27 11:33N 32°38' W 117°11'0 0.0
2016-Dec-27 10:30N 32°38' W 117°11'0 0.0
2016-Dec-27 09:33N 32°38' W 117°11'0 0.0
2016-Dec-27 08:33N 32°38' W 117°11'0 0.0
2016-Dec-27 07:30N 32°38' W 117°11'0 0.0
2016-Dec-27 06:30N 32°38' W 117°11'0 0.1
2016-Dec-27 05:30N 32°38' W 117°11'0 0.1
2016-Dec-27 04:33N 32°38' W 117°11'0 0.1
2016-Dec-27 03:33N 32°38' W 117°11'0 0.0
2016-Dec-27 02:30N 32°38' W 117°11'0 0.0
2016-Dec-27 01:30N 32°38' W 117°11'0 0.0
2016-Dec-27 00:33N 32°38' W 117°11'0 0.0
2016-Dec-26 23:33N 32°38' W 117°11'0 0.0
2016-Dec-26 22:33N 32°38' W 117°11'0 0.0
2016-Dec-26 21:33N 32°38' W 117°11'0 0.0
2016-Dec-26 20:33N 32°38' W 117°11'0 0.0
2016-Dec-26 19:33N 32°38' W 117°11'0 0.1
2016-Dec-26 18:33N 32°38' W 117°11'0 0.0
2016-Dec-26 17:33N 32°38' W 117°11'0 0.0
2016-Dec-26 16:33N 32°38' W 117°11'0 0.0
2016-Dec-26 15:33N 32°38' W 117°11'0 0.0
2016-Dec-26 14:33N 32°38' W 117°11'0 0.0
2016-Dec-26 13:30N 32°38' W 117°11'0 0.1
2016-Dec-26 12:33N 32°38' W 117°11'0 0.0
2016-Dec-26 11:33N 32°38' W 117°11'0 0.1
2016-Dec-26 10:33N 32°38' W 117°11'0 0.0
2016-Dec-26 09:33N 32°38' W 117°11'0 0.0
2016-Dec-26 08:33N 32°38' W 117°11'0 0.0
2016-Dec-26 07:30N 32°38' W 117°11'0 0.1
2016-Dec-26 06:33N 32°38' W 117°11'0 0.0
2016-Dec-26 05:33N 32°38' W 117°11'0 0.0
2016-Dec-26 04:30N 32°38' W 117°11'0 0.1
2016-Dec-26 03:30N 32°38' W 117°11'0 0.0
2016-Dec-26 02:33N 32°38' W 117°11'0 0.0
2016-Dec-26 01:33N 32°38' W 117°11'0 0.1
2016-Dec-26 00:33N 32°38' W 117°11'0 0.1
2016-Dec-25 23:33N 32°38' W 117°11'0 0.0
2016-Dec-25 22:33N 32°38' W 117°11'0 0.0
2016-Dec-25 21:33N 32°38' W 117°11'0 0.0
2016-Dec-25 20:33N 32°38' W 117°11'0 0.0
2016-Dec-25 19:33N 32°38' W 117°11'0 0.0
2016-Dec-25 18:33N 32°38' W 117°11'0 0.1
2016-Dec-25 17:33N 32°38' W 117°11'0 0.0
2016-Dec-25 16:30N 32°38' W 117°11'0 0.0
2016-Dec-25 15:33N 32°38' W 117°11'0 0.0
2016-Dec-25 14:33N 32°38' W 117°11'0 0.0
2016-Dec-25 13:33N 32°38' W 117°11'0 0.0
2016-Dec-25 12:33N 32°38' W 117°11'0 0.0
2016-Dec-25 11:33N 32°38' W 117°11'0 0.0
2016-Dec-25 10:33N 32°38' W 117°11'0 0.0
2016-Dec-25 09:33N 32°38' W 117°11'0 0.1
2016-Dec-25 08:33N 32°38' W 117°11'0 0.1
2016-Dec-25 07:33N 32°38' W 117°11'0 0.0
2016-Dec-25 06:33N 32°38' W 117°11'0 0.0
2016-Dec-25 05:33N 32°38' W 117°11'0 0.0
2016-Dec-25 04:30N 32°38' W 117°11'0 0.1
2016-Dec-25 03:33N 32°38' W 117°11'0 0.1
2016-Dec-25 02:33N 32°38' W 117°11'0 0.1
2016-Dec-25 01:33N 32°38' W 117°11'0 0.1
2016-Dec-25 00:33N 32°38' W 117°11'0 0.1
2016-Dec-24 23:33N 32°38' W 117°11'0 0.1
2016-Dec-24 22:33N 32°38' W 117°11'0 0.0
2016-Dec-24 21:30N 32°38' W 117°11'0 0.1
2016-Dec-24 20:30N 32°38' W 117°11'0 0.0
2016-Dec-24 19:30N 32°38' W 117°11'0 0.0
2016-Dec-24 18:33N 32°38' W 117°11'0 0.0
2016-Dec-24 17:33N 32°38' W 117°11'0 0.0
2016-Dec-24 16:33N 32°38' W 117°11'0 0.0
2016-Dec-24 15:33N 32°38' W 117°11'0 0.0
2016-Dec-24 14:33N 32°38' W 117°11'0 0.0
2016-Dec-24 13:33N 32°38' W 117°11'0 0.0
2016-Dec-24 12:30N 32°38' W 117°11'0 0.0
2016-Dec-24 11:33N 32°38' W 117°11'0 0.0
2016-Dec-24 10:33N 32°38' W 117°11'0 0.3
2016-Dec-24 09:33N 32°38' W 117°12'0 0.0
2016-Dec-24 08:33N 32°38' W 117°12'0 0.0
2016-Dec-24 07:33N 32°38' W 117°12'0 0.1
2016-Dec-24 06:33N 32°38' W 117°12'0 0.1
2016-Dec-24 05:33N 32°38' W 117°12'0 0.0
2016-Dec-24 04:33N 32°38' W 117°12'0 0.1
2016-Dec-24 03:33N 32°38' W 117°12'0 0.1
2016-Dec-24 02:33N 32°38' W 117°12'0 0.0
2016-Dec-24 01:33N 32°38' W 117°12'0 0.1
2016-Dec-24 00:33N 32°38' W 117°12'0 0.0
2016-Dec-23 23:33N 32°38' W 117°12'0 0.0
2016-Dec-23 22:33N 32°38' W 117°12'0 0.1
2016-Dec-23 21:33N 32°38' W 117°12'0 0.0
2016-Dec-23 20:33N 32°38' W 117°12'0 0.0
2016-Dec-23 19:33N 32°38' W 117°12'0 0.0
2016-Dec-23 18:33N 32°38' W 117°12'0 0.1
2016-Dec-23 17:33N 32°38' W 117°12'0 0.0
2016-Dec-23 16:30N 32°38' W 117°12'0 0.0
2016-Dec-23 15:27N 32°38' W 117°12'0 0.0
2016-Dec-23 14:33N 32°38' W 117°12'0 0.0
2016-Dec-23 13:30N 32°38' W 117°12'0 0.0
2016-Dec-23 12:33N 32°38' W 117°12'0 0.1
2016-Dec-23 11:33N 32°38' W 117°12'0 0.2
2016-Dec-23 10:33N 32°38' W 117°12'9 9.0
2016-Dec-23 09:33N 32°40' W 117°22'1615.6
2016-Dec-23 08:33N 32°52' W 117°34'1616.2
2016-Dec-23 07:33N 33°03' W 117°48'1616.1
2016-Dec-23 06:33N 33°15' W 118°02'1515.4
2016-Dec-23 05:33N 33°28' W 118°10'4514.4
2016-Dec-23 02:26N 33°53' W 118°56'1416.0
2016-Dec-23 01:33N 33°60' W 119°11'9 7.6
2016-Dec-23 00:19N 34°09' W 119°12'0 0.0
2016-Dec-22 23:19N 34°09' W 119°12'0 0.0
2016-Dec-22 22:31N 34°09' W 119°12'0 0.0
2016-Dec-22 21:19N 34°09' W 119°12'0 0.0
2016-Dec-22 20:28N 34°09' W 119°12'0 0.0
2016-Dec-22 19:31N 34°09' W 119°12'0 0.0
2016-Dec-22 18:19N 34°09' W 119°12'0 0.0
2016-Dec-22 17:19N 34°09' W 119°12'0 0.0
2016-Dec-22 15:33N 34°09' W 119°12'0 0.0
2016-Dec-22 14:29N 34°09' W 119°12'4 2.8
2016-Dec-22 13:05N 34°05' W 119°13'1 0.5
2016-Dec-22 10:17N 34°06' W 119°12'0 0.1
2016-Dec-22 08:23N 34°06' W 119°12'0 0.1
2016-Dec-22 07:26N 34°06' W 119°12'0 0.0
2016-Dec-22 04:24N 34°06' W 119°12'0 0.0
2016-Dec-22 03:17N 34°06' W 119°12'0 0.0
2016-Dec-22 02:14N 34°06' W 119°12'0 0.0
2016-Dec-22 01:32N 34°06' W 119°12'0 0.1
2016-Dec-22 00:32N 34°06' W 119°12'11 8.8
2016-Dec-21 23:20N 34°04' W 119°24'1415.5
2016-Dec-21 22:27N 34°08' W 119°40'1415.5
2016-Dec-21 21:33N 34°11' W 119°56'1616.0
2016-Dec-21 20:33N 34°16' W 120°15'1716.2
2016-Dec-21 19:30N 34°21' W 120°35'1515.8
2016-Dec-21 18:33N 34°25' W 120°52'1615.4
2016-Dec-21 17:32N 34°37' W 121°04'1616.3
2016-Dec-21 16:33N 34°50' W 121°14'  
Track history (hours):
 
Tides and Currents Weather Stations Pressure Air Temp Water Temp Dewpoint Dewpoint Depression Visibility Wind Speed Wind Dir Waves Ship Positions

Grand Ruby

Last reported at 2016-Dec-31 14:21 UTC. Time now 2017-Feb-26 00:57 UTC.
Position N 32°20' W 117°30'.
Warning: this ship's position is 56 days out of date.

Length 199 m; draft 7.8 m.

Type: Cargo ship. MMSI: 372399000.

Date/timePositionNaut miles runAvg speedWind from/ knotsBaromVisibWave heightAir tempDewpointWater temp
2016-Dec-31 14:21N 32°20' W 117°30'1316.4
2016-Dec-31 13:33N 32°31' W 117°21'1212.4
2016-Dec-31 12:33N 32°42' W 117°14'6 5.9
2016-Dec-31 11:32N 32°39' W 117°07'0 0.0
2016-Dec-31 10:32N 32°39' W 117°07'0 0.0
2016-Dec-31 09:32N 32°39' W 117°07'0 0.0
2016-Dec-31 08:32N 32°39' W 117°07'0 0.0
2016-Dec-31 07:32N 32°39' W 117°07'0 0.0
2016-Dec-31 06:32N 32°39' W 117°07'0 0.0
2016-Dec-31 05:32N 32°39' W 117°07'0 0.0
2016-Dec-31 04:32N 32°39' W 117°07'0 0.0
2016-Dec-31 03:32N 32°39' W 117°07'0 0.0
2016-Dec-31 02:32N 32°39' W 117°07'0 0.0
2016-Dec-31 01:32N 32°39' W 117°07'0 0.0
2016-Dec-31 00:29N 32°39' W 117°07'0 0.0
2016-Dec-30 23:32N 32°39' W 117°07'0 0.0
2016-Dec-30 22:32N 32°39' W 117°07'0 0.0
2016-Dec-30 21:32N 32°39' W 117°07'0 0.0
2016-Dec-30 20:29N 32°39' W 117°07'0 0.0
2016-Dec-30 19:32N 32°39' W 117°07'0 0.0
2016-Dec-30 18:32N 32°39' W 117°07'0 0.0
2016-Dec-30 17:32N 32°39' W 117°07'0 0.0
2016-Dec-30 16:32N 32°39' W 117°07'4 4.4
2016-Dec-30 15:33N 32°42' W 117°11'6 5.6
2016-Dec-30 14:33N 32°37' W 117°13'1 1.3
2016-Dec-30 13:33N 32°38' W 117°11'0 0.0
2016-Dec-30 12:33N 32°38' W 117°11'0 0.0
2016-Dec-30 11:33N 32°38' W 117°11'0 0.1
2016-Dec-30 10:33N 32°38' W 117°11'0 0.0
2016-Dec-30 09:30N 32°38' W 117°11'0 0.1
2016-Dec-30 08:33N 32°38' W 117°11'0 0.0
2016-Dec-30 07:33N 32°38' W 117°11'0 0.0
2016-Dec-30 06:33N 32°38' W 117°11'0 0.0
2016-Dec-30 05:30N 32°38' W 117°11'0 0.0
2016-Dec-30 04:33N 32°38' W 117°11'0 0.0
2016-Dec-30 03:33N 32°38' W 117°11'0 0.0
2016-Dec-30 02:30N 32°38' W 117°11'0 0.0
2016-Dec-30 01:33N 32°38' W 117°11'0 0.1
2016-Dec-30 00:33N 32°38' W 117°11'0 0.0
2016-Dec-29 23:33N 32°38' W 117°11'0 0.0
2016-Dec-29 22:33N 32°38' W 117°11'0 0.1
2016-Dec-29 21:30N 32°38' W 117°11'0 0.0
2016-Dec-29 20:33N 32°38' W 117°11'0 0.1
2016-Dec-29 19:33N 32°38' W 117°11'0 0.0
2016-Dec-29 18:33N 32°38' W 117°11'0 0.1
2016-Dec-29 17:33N 32°38' W 117°11'0 0.1
2016-Dec-29 16:33N 32°38' W 117°11'0 0.0
2016-Dec-29 15:33N 32°38' W 117°11'0 0.0
2016-Dec-29 14:30N 32°38' W 117°11'0 0.0
2016-Dec-29 13:33N 32°38' W 117°11'0 0.0
2016-Dec-29 12:33N 32°38' W 117°11'0 0.0
2016-Dec-29 11:33N 32°38' W 117°11'0 0.0
2016-Dec-29 10:30N 32°38' W 117°11'0 0.0
2016-Dec-29 09:33N 32°38' W 117°11'0 0.0
2016-Dec-29 08:30N 32°38' W 117°11'0 0.1
2016-Dec-29 07:33N 32°38' W 117°11'0 0.1
2016-Dec-29 06:33N 32°38' W 117°11'0 0.0
2016-Dec-29 05:33N 32°38' W 117°11'0 0.0
2016-Dec-29 04:33N 32°38' W 117°11'0 0.1
2016-Dec-29 03:33N 32°38' W 117°11'0 0.1
2016-Dec-29 02:33N 32°38' W 117°11'0 0.0
2016-Dec-29 01:30N 32°38' W 117°11'0 0.0
2016-Dec-29 00:33N 32°38' W 117°11'0 0.0
2016-Dec-28 23:33N 32°38' W 117°11'0 0.0
2016-Dec-28 22:33N 32°38' W 117°11'0 0.0
2016-Dec-28 21:33N 32°38' W 117°11'0 0.0
2016-Dec-28 20:33N 32°38' W 117°11'0 0.0
2016-Dec-28 19:33N 32°38' W 117°11'0 0.0
2016-Dec-28 18:33N 32°38' W 117°11'0 0.1
2016-Dec-28 17:33N 32°38' W 117°11'0 0.0
2016-Dec-28 16:33N 32°38' W 117°11'0 0.0
2016-Dec-28 15:30N 32°38' W 117°11'0 0.0
2016-Dec-28 14:33N 32°38' W 117°11'0 0.0
2016-Dec-28 13:33N 32°38' W 117°11'0 0.0
2016-Dec-28 12:30N 32°38' W 117°11'0 0.0
2016-Dec-28 11:30N 32°38' W 117°11'0 0.0
2016-Dec-28 10:33N 32°38' W 117°11'0 0.0
2016-Dec-28 09:33N 32°38' W 117°11'0 0.0
2016-Dec-28 08:33N 32°38' W 117°11'0 0.0
2016-Dec-28 07:33N 32°38' W 117°11'0 0.1
2016-Dec-28 06:33N 32°38' W 117°11'0 0.0
2016-Dec-28 05:33N 32°38' W 117°11'0 0.0
2016-Dec-28 04:33N 32°38' W 117°11'0 0.0
2016-Dec-28 03:33N 32°38' W 117°11'0 0.0
2016-Dec-28 02:33N 32°38' W 117°11'0 0.0
2016-Dec-28 01:33N 32°38' W 117°11'0 0.0
2016-Dec-28 00:30N 32°38' W 117°11'0 0.0
2016-Dec-27 23:33N 32°38' W 117°11'0 0.0
2016-Dec-27 22:30N 32°38' W 117°11'0 0.1
2016-Dec-27 21:33N 32°38' W 117°11'0 0.0
2016-Dec-27 20:33N 32°38' W 117°11'0 0.0
2016-Dec-27 19:33N 32°38' W 117°11'0 0.1
2016-Dec-27 18:30N 32°38' W 117°11'0 0.0
2016-Dec-27 17:33N 32°38' W 117°11'0 0.0
2016-Dec-27 16:33N 32°38' W 117°11'0 0.0
2016-Dec-27 15:33N 32°38' W 117°11'0 0.1
2016-Dec-27 14:33N 32°38' W 117°11'0 0.0
2016-Dec-27 13:33N 32°38' W 117°11'0 0.0
2016-Dec-27 12:33N 32°38' W 117°11'0 0.0
2016-Dec-27 11:33N 32°38' W 117°11'0 0.0
2016-Dec-27 10:30N 32°38' W 117°11'0 0.0
2016-Dec-27 09:33N 32°38' W 117°11'0 0.0
2016-Dec-27 08:33N 32°38' W 117°11'0 0.0
2016-Dec-27 07:30N 32°38' W 117°11'0 0.0
2016-Dec-27 06:30N 32°38' W 117°11'0 0.1
2016-Dec-27 05:30N 32°38' W 117°11'0 0.1
2016-Dec-27 04:33N 32°38' W 117°11'0 0.1
2016-Dec-27 03:33N 32°38' W 117°11'0 0.0
2016-Dec-27 02:30N 32°38' W 117°11'0 0.0
2016-Dec-27 01:30N 32°38' W 117°11'0 0.0
2016-Dec-27 00:33N 32°38' W 117°11'0 0.0
2016-Dec-26 23:33N 32°38' W 117°11'0 0.0
2016-Dec-26 22:33N 32°38' W 117°11'0 0.0
2016-Dec-26 21:33N 32°38' W 117°11'0 0.0
2016-Dec-26 20:33N 32°38' W 117°11'0 0.0
2016-Dec-26 19:33N 32°38' W 117°11'0 0.1
2016-Dec-26 18:33N 32°38' W 117°11'0 0.0
2016-Dec-26 17:33N 32°38' W 117°11'0 0.0
2016-Dec-26 16:33N 32°38' W 117°11'0 0.0
2016-Dec-26 15:33N 32°38' W 117°11'0 0.0
2016-Dec-26 14:33N 32°38' W 117°11'0 0.0
2016-Dec-26 13:30N 32°38' W 117°11'0 0.1
2016-Dec-26 12:33N 32°38' W 117°11'0 0.0
2016-Dec-26 11:33N 32°38' W 117°11'0 0.1
2016-Dec-26 10:33N 32°38' W 117°11'0 0.0
2016-Dec-26 09:33N 32°38' W 117°11'0 0.0
2016-Dec-26 08:33N 32°38' W 117°11'0 0.0
2016-Dec-26 07:30N 32°38' W 117°11'0 0.1
2016-Dec-26 06:33N 32°38' W 117°11'0 0.0
2016-Dec-26 05:33N 32°38' W 117°11'0 0.0
2016-Dec-26 04:30N 32°38' W 117°11'0 0.1
2016-Dec-26 03:30N 32°38' W 117°11'0 0.0
2016-Dec-26 02:33N 32°38' W 117°11'0 0.0
2016-Dec-26 01:33N 32°38' W 117°11'0 0.1
2016-Dec-26 00:33N 32°38' W 117°11'0 0.1
2016-Dec-25 23:33N 32°38' W 117°11'0 0.0
2016-Dec-25 22:33N 32°38' W 117°11'0 0.0
2016-Dec-25 21:33N 32°38' W 117°11'0 0.0
2016-Dec-25 20:33N 32°38' W 117°11'0 0.0
2016-Dec-25 19:33N 32°38' W 117°11'0 0.0
2016-Dec-25 18:33N 32°38' W 117°11'0 0.1
2016-Dec-25 17:33N 32°38' W 117°11'0 0.0
2016-Dec-25 16:30N 32°38' W 117°11'0 0.0
2016-Dec-25 15:33N 32°38' W 117°11'0 0.0
2016-Dec-25 14:33N 32°38' W 117°11'0 0.0
2016-Dec-25 13:33N 32°38' W 117°11'0 0.0
2016-Dec-25 12:33N 32°38' W 117°11'0 0.0
2016-Dec-25 11:33N 32°38' W 117°11'0 0.0
2016-Dec-25 10:33N 32°38' W 117°11'0 0.0
2016-Dec-25 09:33N 32°38' W 117°11'0 0.1
2016-Dec-25 08:33N 32°38' W 117°11'0 0.1
2016-Dec-25 07:33N 32°38' W 117°11'0 0.0
2016-Dec-25 06:33N 32°38' W 117°11'0 0.0
2016-Dec-25 05:33N 32°38' W 117°11'0 0.0
2016-Dec-25 04:30N 32°38' W 117°11'0 0.1
2016-Dec-25 03:33N 32°38' W 117°11'0 0.1
2016-Dec-25 02:33N 32°38' W 117°11'0 0.1
2016-Dec-25 01:33N 32°38' W 117°11'0 0.1
2016-Dec-25 00:33N 32°38' W 117°11'0 0.1
2016-Dec-24 23:33N 32°38' W 117°11'0 0.1
2016-Dec-24 22:33N 32°38' W 117°11'0 0.0
2016-Dec-24 21:30N 32°38' W 117°11'0 0.1
2016-Dec-24 20:30N 32°38' W 117°11'0 0.0
2016-Dec-24 19:30N 32°38' W 117°11'0 0.0
2016-Dec-24 18:33N 32°38' W 117°11'0 0.0
2016-Dec-24 17:33N 32°38' W 117°11'0 0.0
2016-Dec-24 16:33N 32°38' W 117°11'0 0.0
2016-Dec-24 15:33N 32°38' W 117°11'0 0.0
2016-Dec-24 14:33N 32°38' W 117°11'0 0.0
2016-Dec-24 13:33N 32°38' W 117°11'0 0.0
2016-Dec-24 12:30N 32°38' W 117°11'0 0.0
2016-Dec-24 11:33N 32°38' W 117°11'0 0.0
2016-Dec-24 10:33N 32°38' W 117°11'0 0.3
2016-Dec-24 09:33N 32°38' W 117°12'0 0.0
2016-Dec-24 08:33N 32°38' W 117°12'0 0.0
2016-Dec-24 07:33N 32°38' W 117°12'0 0.1
2016-Dec-24 06:33N 32°38' W 117°12'0 0.1
2016-Dec-24 05:33N 32°38' W 117°12'0 0.0
2016-Dec-24 04:33N 32°38' W 117°12'0 0.1
2016-Dec-24 03:33N 32°38' W 117°12'0 0.1
2016-Dec-24 02:33N 32°38' W 117°12'0 0.0
2016-Dec-24 01:33N 32°38' W 117°12'0 0.1
2016-Dec-24 00:33N 32°38' W 117°12'0 0.0
2016-Dec-23 23:33N 32°38' W 117°12'0 0.0
2016-Dec-23 22:33N 32°38' W 117°12'0 0.1
2016-Dec-23 21:33N 32°38' W 117°12'0 0.0
2016-Dec-23 20:33N 32°38' W 117°12'0 0.0
2016-Dec-23 19:33N 32°38' W 117°12'0 0.0
2016-Dec-23 18:33N 32°38' W 117°12'0 0.1
2016-Dec-23 17:33N 32°38' W 117°12'0 0.0
2016-Dec-23 16:30N 32°38' W 117°12'0 0.0
2016-Dec-23 15:27N 32°38' W 117°12'0 0.0
2016-Dec-23 14:33N 32°38' W 117°12'0 0.0
2016-Dec-23 13:30N 32°38' W 117°12'0 0.0
2016-Dec-23 12:33N 32°38' W 117°12'0 0.1
2016-Dec-23 11:33N 32°38' W 117°12'0 0.2
2016-Dec-23 10:33N 32°38' W 117°12'9 9.0
2016-Dec-23 09:33N 32°40' W 117°22'1615.6
2016-Dec-23 08:33N 32°52' W 117°34'1616.2
2016-Dec-23 07:33N 33°03' W 117°48'1616.1
2016-Dec-23 06:33N 33°15' W 118°02'1515.4
2016-Dec-23 05:33N 33°28' W 118°10'4514.4
2016-Dec-23 02:26N 33°53' W 118°56'1416.0
2016-Dec-23 01:33N 33°60' W 119°11'9 7.6
2016-Dec-23 00:19N 34°09' W 119°12'0 0.0
2016-Dec-22 23:19N 34°09' W 119°12'0 0.0
2016-Dec-22 22:31N 34°09' W 119°12'0 0.0
2016-Dec-22 21:19N 34°09' W 119°12'0 0.0
2016-Dec-22 20:28N 34°09' W 119°12'0 0.0
2016-Dec-22 19:31N 34°09' W 119°12'0 0.0
2016-Dec-22 18:19N 34°09' W 119°12'0 0.0
2016-Dec-22 17:19N 34°09' W 119°12'0 0.0
2016-Dec-22 15:33N 34°09' W 119°12'0 0.0
2016-Dec-22 14:29N 34°09' W 119°12'4 2.8
2016-Dec-22 13:05N 34°05' W 119°13'1 0.5
2016-Dec-22 10:17N 34°06' W 119°12'0 0.1
2016-Dec-22 08:23N 34°06' W 119°12'0 0.1
2016-Dec-22 07:26N 34°06' W 119°12'0 0.0
2016-Dec-22 04:24N 34°06' W 119°12'0 0.0
2016-Dec-22 03:17N 34°06' W 119°12'0 0.0
2016-Dec-22 02:14N 34°06' W 119°12'0 0.0
2016-Dec-22 01:32N 34°06' W 119°12'0 0.1
2016-Dec-22 00:32N 34°06' W 119°12'11 8.8
2016-Dec-21 23:20N 34°04' W 119°24'1415.5
2016-Dec-21 22:27N 34°08' W 119°40'1415.5
2016-Dec-21 21:33N 34°11' W 119°56'1616.0
2016-Dec-21 20:33N 34°16' W 120°15'1716.2
2016-Dec-21 19:30N 34°21' W 120°35'1515.8
2016-Dec-21 18:33N 34°25' W 120°52'1615.4
2016-Dec-21 17:32N 34°37' W 121°04'1616.3
2016-Dec-21 16:33N 34°50' W 121°14'  

Dump ship's entire track history